createdAt,value
2023-05-18T00:00:36.600Z,101142.70
2023-05-18T00:05:58.217Z,101139.72
2023-05-18T00:11:06.930Z,101145.98
2023-05-18T00:16:12.679Z,101143.99
2023-05-18T00:21:16.706Z,101147.02
2023-05-18T00:26:21.298Z,101150.84
2023-05-18T00:31:27.139Z,101161.06
2023-05-18T00:36:32.124Z,101160.41
2023-05-18T00:41:36.880Z,101165.48
2023-05-18T00:46:41.949Z,101169.89
2023-05-18T00:51:46.410Z,101180.16
2023-05-18T00:56:54.340Z,101186.48
2023-05-18T01:02:05.242Z,101196.02
2023-05-18T01:07:12.017Z,101199.08
2023-05-18T01:12:24.697Z,101202.06
2023-05-18T01:17:47.961Z,101205.98
2023-05-18T01:23:24.108Z,101205.03
2023-05-18T01:28:32.720Z,101209.80
2023-05-18T01:33:36.847Z,101215.23
2023-05-18T01:38:43.948Z,101216.30
2023-05-18T01:44:34.216Z,101221.75
2023-05-18T01:50:02.668Z,101224.23
2023-05-18T01:55:07.801Z,101225.35
2023-05-18T02:00:13.025Z,101228.69
2023-05-18T02:05:23.827Z,101228.91
2023-05-18T02:10:27.529Z,101233.92
2023-05-18T02:15:31.722Z,101232.39
2023-05-18T02:20:38.936Z,101233.45
2023-05-18T02:25:44.856Z,101234.73
2023-05-18T02:30:51.040Z,101235.66
2023-05-18T02:35:54.863Z,101238.86
2023-05-18T02:40:59.246Z,101236.79
2023-05-18T02:46:06.205Z,101240.61
2023-05-18T02:51:11.026Z,101245.00
2023-05-18T02:56:15.233Z,101246.20
2023-05-18T03:01:45.285Z,101247.89
2023-05-18T03:06:53.437Z,101251.88
2023-05-18T03:11:58.278Z,101261.55
2023-05-18T03:17:06.284Z,101265.28
2023-05-18T03:22:11.556Z,101270.29
2023-05-18T03:27:16.921Z,101266.36
2023-05-18T03:32:23.451Z,101259.83
2023-05-18T03:37:27.732Z,101267.00
2023-05-18T03:42:32.198Z,101267.38
2023-05-18T03:47:40.222Z,101275.39
2023-05-18T03:52:45.003Z,101279.77
2023-05-18T03:57:49.846Z,101286.38
2023-05-18T04:02:54.624Z,101290.78
2023-05-18T04:08:01.311Z,101294.64
2023-05-18T04:13:05.113Z,101301.27
2023-05-18T04:18:10.897Z,101305.11
2023-05-18T04:23:14.632Z,101311.41
2023-05-18T04:28:19.662Z,101314.83
2023-05-18T04:33:25.249Z,101315.13
2023-05-18T04:38:35.197Z,101317.08
2023-05-18T04:43:43.207Z,101323.50
2023-05-18T04:48:53.275Z,101322.16
2023-05-18T04:53:57.160Z,101325.97
2023-05-18T04:59:02.804Z,101328.40
2023-05-18T05:04:07.365Z,101331.25
2023-05-18T05:09:14.324Z,101330.36
2023-05-18T05:14:20.380Z,101334.16
2023-05-18T05:19:24.315Z,101341.45
2023-05-18T05:24:28.002Z,101336.77
2023-05-18T05:29:31.796Z,101341.96
2023-05-18T05:34:37.994Z,101343.85
2023-05-18T05:39:42.515Z,101345.44
2023-05-18T05:44:47.271Z,101345.56
2023-05-18T05:49:51.368Z,101342.06
2023-05-18T05:54:56.440Z,101342.57
2023-05-18T06:00:00.741Z,101345.52
2023-05-18T06:05:06.358Z,101348.44
2023-05-18T06:10:10.297Z,101350.25
2023-05-18T06:15:15.158Z,101352.27
2023-05-18T06:20:18.861Z,101357.68
2023-05-18T06:25:25.774Z,101356.64
2023-05-18T06:30:44.635Z,101364.03
2023-05-18T06:36:13.096Z,101366.53
2023-05-18T06:41:17.276Z,101370.23
2023-05-18T06:46:24.706Z,101371.18
2023-05-18T06:51:32.701Z,101367.10
2023-05-18T06:56:39.277Z,101372.61
2023-05-18T07:01:43.079Z,101368.83
2023-05-18T07:06:50.189Z,101373.61
2023-05-18T07:11:53.938Z,101376.00
2023-05-18T07:16:57.666Z,101374.14
2023-05-18T07:22:01.525Z,101372.83
2023-05-18T07:27:06.261Z,101373.69
2023-05-18T07:32:09.985Z,101373.98
2023-05-18T07:37:14.255Z,101374.07
2023-05-18T07:42:18.094Z,101374.79
2023-05-18T07:47:21.945Z,101378.02
2023-05-18T07:52:26.145Z,101379.67
2023-05-18T07:57:31.446Z,101381.15
2023-05-18T08:02:35.149Z,101378.67
2023-05-18T08:07:38.888Z,101377.80
2023-05-18T08:12:43.415Z,101377.02
2023-05-18T08:17:47.761Z,101380.95
2023-05-18T08:22:51.691Z,101379.48
2023-05-18T08:27:55.302Z,101375.14
2023-05-18T08:32:59.338Z,101376.67
2023-05-18T08:38:05.394Z,101364.50
2023-05-18T08:43:19.653Z,101362.94
2023-05-18T08:48:27.220Z,101366.89
2023-05-18T08:53:34.027Z,101365.10
2023-05-18T08:58:45.012Z,101367.31
2023-05-18T09:03:51.578Z,101363.16
2023-05-18T09:09:04.589Z,101362.83
2023-05-18T09:14:08.581Z,101354.67
2023-05-18T09:19:12.342Z,101355.21
2023-05-18T09:24:16.632Z,101356.02
2023-05-18T09:29:22.113Z,101360.51
2023-05-18T09:34:25.828Z,101355.11
2023-05-18T09:39:29.534Z,101353.46
2023-05-18T09:44:36.406Z,101352.02
2023-05-18T09:49:41.144Z,101346.77
2023-05-18T09:54:44.861Z,101352.62
2023-05-18T09:59:59.177Z,101346.33
2023-05-18T10:05:03.126Z,101340.27
2023-05-18T10:10:09.098Z,101332.23
2023-05-18T10:15:18.057Z,101337.70
2023-05-18T10:20:24.872Z,101334.52
2023-05-18T10:25:29.818Z,101330.10
2023-05-18T10:30:34.764Z,101335.77
2023-05-18T10:35:39.569Z,101330.71
2023-05-18T10:40:44.454Z,101322.53
2023-05-18T10:45:53.052Z,101330.40
2023-05-18T10:50:58.350Z,101317.38
2023-05-18T10:56:03.808Z,101312.86
2023-05-18T11:01:10.180Z,101310.27
2023-05-18T11:06:15.367Z,101316.48
2023-05-18T11:11:24.761Z,101312.57
2023-05-18T11:16:36.204Z,101308.41
2023-05-18T11:21:42.081Z,101313.00
2023-05-18T11:26:50.183Z,101305.11
2023-05-18T11:31:56.129Z,101306.50
2023-05-18T11:37:01.765Z,101309.38
2023-05-18T11:42:14.871Z,101308.73
2023-05-18T11:47:19.175Z,101306.86
2023-05-18T11:52:24.441Z,101304.61
2023-05-18T11:57:34.428Z,101304.91
2023-05-18T12:02:46.627Z,101302.15
2023-05-18T12:07:56.840Z,101298.40
2023-05-18T12:13:01.528Z,101297.75
2023-05-18T12:18:11.469Z,101298.24
2023-05-18T12:23:15.742Z,101295.73
2023-05-18T12:28:19.473Z,101292.30
2023-05-18T12:33:23.237Z,101281.20
2023-05-18T12:38:29.695Z,101285.04
2023-05-18T12:43:39.494Z,101278.48
2023-05-18T12:48:49.503Z,101272.27
2023-05-18T12:53:53.174Z,101263.23
2023-05-18T12:59:03.362Z,101268.34
2023-05-18T13:04:12.130Z,101263.36
2023-05-18T13:09:17.236Z,101262.28
2023-05-18T13:14:31.207Z,101259.52
2023-05-18T13:19:37.861Z,101259.20
2023-05-18T13:24:43.204Z,101258.80
2023-05-18T13:29:47.169Z,101258.43
2023-05-18T13:34:52.786Z,101260.11
2023-05-18T13:40:03.166Z,101252.77
2023-05-18T13:45:08.388Z,101248.19
2023-05-18T13:50:12.889Z,101241.41
2023-05-18T13:55:16.766Z,101238.36
2023-05-18T14:00:21.123Z,101227.88
2023-05-18T14:05:25.508Z,101221.08
2023-05-18T14:10:29.792Z,101221.70
2023-05-18T14:15:33.623Z,101219.70
2023-05-18T14:20:38.290Z,101216.20
2023-05-18T14:25:43.980Z,101213.23
2023-05-18T14:30:47.720Z,101218.21
2023-05-18T14:35:51.615Z,101207.14
2023-05-18T14:40:55.359Z,101207.23
2023-05-18T14:46:08.100Z,101209.45
2023-05-18T14:51:13.819Z,101209.79
2023-05-18T14:56:17.624Z,101206.13
2023-05-18T15:01:21.638Z,101209.35
2023-05-18T15:06:26.625Z,101209.77
2023-05-18T15:11:30.322Z,101211.24
2023-05-18T15:16:34.328Z,101210.55
2023-05-18T15:21:40.493Z,101210.68
2023-05-18T15:26:45.003Z,101207.39
2023-05-18T15:31:53.074Z,101211.58
2023-05-18T15:36:57.121Z,101208.13
2023-05-18T15:42:05.290Z,101209.47
2023-05-18T15:47:09.093Z,101208.77
2023-05-18T15:52:12.880Z,101205.16
2023-05-18T15:57:16.622Z,101207.38
2023-05-18T16:02:20.367Z,101199.49
2023-05-18T16:07:24.799Z,101200.52
2023-05-18T16:12:28.393Z,101208.49
2023-05-18T16:17:32.611Z,101207.34
2023-05-18T16:22:36.244Z,101204.08
2023-05-18T16:27:39.874Z,101203.68
2023-05-18T16:32:44.770Z,101200.81
2023-05-18T16:37:48.407Z,101200.23
2023-05-18T16:42:52.167Z,101201.78
2023-05-18T16:47:56.046Z,101199.98
2023-05-18T16:52:59.765Z,101206.02
2023-05-18T16:58:04.396Z,101215.33
2023-05-18T17:03:11.341Z,101212.95
2023-05-18T17:08:15.414Z,101214.38
2023-05-18T17:13:19.140Z,101216.23
2023-05-18T17:18:22.818Z,101213.44
2023-05-18T17:23:26.499Z,101218.30
2023-05-18T17:28:30.340Z,101216.01
2023-05-18T17:33:34.245Z,101219.56
2023-05-18T17:38:38.484Z,101223.11
2023-05-18T17:43:42.442Z,101218.46
2023-05-18T17:48:49.320Z,101222.25
2023-05-18T17:53:53.251Z,101226.48
2023-05-18T17:58:59.022Z,101230.05
2023-05-18T18:04:03.037Z,101227.92
2023-05-18T18:09:07.241Z,101233.34
2023-05-18T18:14:15.798Z,101233.45
2023-05-18T18:19:20.495Z,101239.36
2023-05-18T18:24:24.805Z,101240.64
2023-05-18T18:29:30.949Z,101237.23
2023-05-18T18:34:41.335Z,101240.14
2023-05-18T18:39:45.147Z,101246.36
2023-05-18T18:44:49.777Z,101249.64
2023-05-18T18:49:53.729Z,101259.83
2023-05-18T18:54:58.782Z,101265.70
2023-05-18T19:00:02.676Z,101271.77
2023-05-18T19:05:11.413Z,101273.00
2023-05-18T19:10:15.917Z,101275.83
2023-05-18T19:15:22.707Z,101275.92
2023-05-18T19:20:27.105Z,101277.95
2023-05-18T19:25:32.303Z,101279.50
2023-05-18T19:30:36.946Z,101287.63
2023-05-18T19:35:40.958Z,101288.55
2023-05-18T19:40:44.771Z,101285.56
2023-05-18T19:45:50.473Z,101291.77
2023-05-18T19:50:54.803Z,101296.41
2023-05-18T19:56:00.068Z,101297.28
2023-05-18T20:01:04.753Z,101300.87
2023-05-18T20:06:08.592Z,101305.54
2023-05-18T20:11:12.621Z,101304.80
2023-05-18T20:16:20.688Z,101313.61
2023-05-18T20:21:25.769Z,101317.87
2023-05-18T20:26:31.946Z,101324.65
2023-05-18T20:31:37.613Z,101325.71
2023-05-18T20:36:41.580Z,101323.63
2023-05-18T20:41:45.222Z,101328.28
2023-05-18T20:46:53.365Z,101333.77
2023-05-18T20:51:57.218Z,101333.03
2023-05-18T20:57:01.184Z,101333.58
2023-05-18T21:02:05.262Z,101341.96
2023-05-18T21:07:10.285Z,101340.66
2023-05-18T21:12:14.154Z,101341.48
2023-05-18T21:17:18.550Z,101343.24
2023-05-18T21:22:22.537Z,101342.02
2023-05-18T21:27:27.265Z,101341.66
2023-05-18T21:32:31.572Z,101341.71
2023-05-18T21:37:35.487Z,101339.80
2023-05-18T21:42:45.375Z,101344.11
2023-05-18T21:47:51.073Z,101342.74
2023-05-18T21:52:55.535Z,101352.92
2023-05-18T21:57:59.904Z,101353.38
2023-05-18T22:03:05.557Z,101354.41
2023-05-18T22:08:09.879Z,101353.83
2023-05-18T22:13:13.559Z,101355.14
2023-05-18T22:18:19.606Z,101356.30
2023-05-18T22:23:23.779Z,101354.98
2023-05-18T22:28:28.585Z,101357.79
2023-05-18T22:33:32.315Z,101354.46
2023-05-18T22:38:36.198Z,101353.09
2023-05-18T22:43:40.754Z,101350.39
2023-05-18T22:48:45.965Z,101348.71
2023-05-18T22:53:49.687Z,101343.73
2023-05-18T22:58:53.845Z,101342.52
2023-05-18T23:03:59.540Z,101343.95
2023-05-18T23:09:04.319Z,101346.70
2023-05-18T23:14:08.878Z,101345.17
2023-05-18T23:19:15.226Z,101341.70
2023-05-18T23:24:19.326Z,101333.23
2023-05-18T23:29:22.956Z,101330.94
2023-05-18T23:34:27.830Z,101333.52
2023-05-18T23:39:33.046Z,101331.85
2023-05-18T23:44:37.547Z,101325.54
2023-05-18T23:49:41.489Z,101323.55
2023-05-18T23:54:50.701Z,101323.50
2023-05-18T23:59:55.803Z,101323.93
